Terminal Aerodrome Forecast
Issued by NWS

Home | Current Version | Previous Version | Text Only | Print | Product List | Glossary On
Versions: 1 2 3 4 5 6 7 8 9 10 11 12 13 14 15 16 17 18 19 20 21 22 23 24 25 26 27 28 29 30 31 32 33 34 35 36 37 38 39 40 41 42 43 44
220
FTUS43 KDVN 220536
TAFCID
TAF
KCID 220536Z 2206/2306 06014KT 1 1/2SM -RA BR OVC002
      TEMPO 2210/2214 1/2SM FG VV002
     FM221400 10011KT 3SM BR VCSH OVC006
     FM221800 17013KT P6SM SCT010 BKN035
     FM222100 19010KT 6SM -RA BR OVC025
     FM230200 36006KT 4SM -RASN OVC010
     FM230400 34013KT 2SM -SN OVC006=

USA.gov is the U.S. government's official web portal to all federal, state and local government web resources and services.